Time;durP1;ratioP1;P1;durP2;ratioP2;P2;SDS_P1;SDS_P2;PMS_P1;PMS_P2;Temp;Humidity;BMP_temperature;BMP_pressure;BME280_temperature;BME280_humidity;BME280_pressure;Samples;Min_cycle;Max_cycle;Signal;HPM_P1;HPM_P2
2021/05/21 00:02:26;;;;;;;3.40;3.02;;;;;;;13.17;100.00;100197.96;1792080;79;21617;-88
2021/05/21 00:04:53;;;;;;;4.17;3.30;;;;;;;13.12;100.00;100198.85;1698471;82;21167;-90
2021/05/21 00:07:20;;;;;;;4.47;3.10;;;;;;;13.08;100.00;100196.20;1771567;79;21055;-88
2021/05/21 00:09:49;;;;;;;3.95;2.90;;;;;;;13.06;100.00;100209.87;1725970;82;21045;-86
2021/05/21 00:12:16;;;;;;;3.60;3.27;;;;;;;13.01;100.00;100201.65;1714923;82;21119;-89
2021/05/21 00:14:45;;;;;;;6.87;3.50;;;;;;;13.01;100.00;100200.34;1755543;79;21092;-85
2021/05/21 00:17:12;;;;;;;4.30;3.40;;;;;;;12.98;100.00;100195.39;1697106;82;21064;-85
2021/05/21 00:19:39;;;;;;;5.55;3.17;;;;;;;12.94;100.00;100196.97;1762125;79;21075;-86
2021/05/21 00:22:07;;;;;;;3.45;3.15;;;;;;;12.92;100.00;100198.08;1785717;79;21052;-87
2021/05/21 00:24:34;;;;;;;5.17;3.52;;;;;;;12.90;100.00;100202.61;1700796;82;21085;-86
2021/05/21 00:27:01;;;;;;;3.70;3.30;;;;;;;12.87;100.00;100196.37;1684902;83;21257;-88
2021/05/21 00:29:28;;;;;;;4.87;3.30;;;;;;;12.86;100.00;100179.86;1718943;82;21120;-84
2021/05/21 00:31:55;;;;;;;4.85;3.40;;;;;;;12.83;100.00;100195.84;1718913;82;21763;-88
2021/05/21 00:34:22;;;;;;;5.30;3.80;;;;;;;12.81;100.00;100199.56;1757086;79;21443;-90
2021/05/21 00:36:49;;;;;;;4.22;3.92;;;;;;;12.78;100.00;100203.25;1777507;79;21048;-86
2021/05/21 00:39:16;;;;;;;4.95;3.62;;;;;;;12.75;100.00;100210.89;1776452;79;21182;-85
2021/05/21 00:41:43;;;;;;;7.70;3.67;;;;;;;12.71;100.00;100213.45;1776408;79;21154;-85
2021/05/21 00:44:12;;;;;;;5.00;4.25;;;;;;;12.66;100.00;100214.33;1782249;79;21510;-85
2021/05/21 00:46:39;;;;;;;8.88;4.50;;;;;;;12.61;100.00;100222.61;1720143;82;21087;-85
2021/05/21 00:49:07;;;;;;;6.47;4.58;;;;;;;12.59;100.00;100200.17;1758768;77;21062;-90
2021/05/21 00:51:34;;;;;;;5.20;3.77;;;;;;;12.55;100.00;100194.41;1784412;78;20992;-85
2021/05/21 00:54:02;;;;;;;5.30;3.60;;;;;;;12.51;100.00;100192.21;1806273;78;21188;-85
2021/05/21 00:56:32;;;;;;;5.80;3.52;;;;;;;12.47;100.00;100186.44;1787424;77;21028;-85
2021/05/21 00:59:01;;;;;;;4.22;3.83;;;;;;;12.47;100.00;100189.05;1808059;78;21072;-86
2021/05/21 01:01:31;;;;;;;3.33;3.02;;;;;;;12.47;100.00;100194.28;1773738;79;21068;-90
2021/05/21 01:03:59;;;;;;;4.15;3.30;;;;;;;12.48;100.00;100184.17;1803881;78;21075;-86
2021/05/21 01:06:26;;;;;;;6.12;3.30;;;;;;;12.47;100.00;100199.50;1777523;79;21063;-87
2021/05/21 01:08:55;;;;;;;4.58;3.12;;;;;;;12.47;100.00;100190.36;1801875;78;21076;-88
2021/05/21 01:11:22;;;;;;;4.28;3.22;;;;;;;12.46;100.00;100192.63;1782348;79;21055;-87
2021/05/21 01:13:49;;;;;;;4.50;3.00;;;;;;;12.47;100.00;100191.66;1799271;78;21854;-86
2021/05/21 01:16:16;;;;;;;5.90;3.42;;;;;;;12.45;100.00;100188.39;1802309;78;21561;-83
2021/05/21 01:18:45;;;;;;;5.00;3.33;;;;;;;12.42;100.00;100188.66;1805470;77;21106;-86
2021/05/21 01:21:12;;;;;;;3.83;3.45;;;;;;;12.39;100.00;100193.67;1774060;79;21090;-88
2021/05/21 01:23:39;;;;;;;4.12;3.08;;;;;;;12.35;100.00;100183.14;1787995;78;21645;-87
2021/05/21 01:26:07;;;;;;;3.45;3.20;;;;;;;12.32;100.00;100180.83;1753799;80;21531;-85
2021/05/21 01:28:34;;;;;;;4.97;3.20;;;;;;;12.27;100.00;100182.55;1734211;80;21032;-87
2021/05/21 01:31:01;;;;;;;3.25;2.87;;;;;;;12.26;100.00;100186.11;1739515;80;21111;-87
2021/05/21 01:33:29;;;;;;;5.97;3.10;;;;;;;12.26;100.00;100186.58;1736014;80;21020;-86
2021/05/21 01:35:56;;;;;;;2.80;2.58;;;;;;;12.24;100.00;100188.52;1723913;81;21079;-87
2021/05/21 01:38:23;;;;;;;3.72;2.45;;;;;;;12.24;100.00;100193.25;1820974;78;21075;-87
2021/05/21 01:40:50;;;;;;;6.47;2.65;;;;;;;12.26;100.00;100187.41;1800013;77;21697;-86
2021/05/21 01:43:18;;;;;;;2.92;2.47;;;;;;;12.27;100.00;100192.14;1779912;78;21712;-86
2021/05/21 01:45:47;;;;;;;2.40;2.20;;;;;;;12.24;100.00;100185.91;1805998;78;21126;-85
2021/05/21 01:48:14;;;;;;;5.33;2.42;;;;;;;12.21;100.00;100199.22;1775475;79;20960;-86
2021/05/21 01:50:42;;;;;;;4.60;2.42;;;;;;;12.19;100.00;100181.09;1784839;79;21058;-84
2021/05/21 01:53:08;;;;;;;3.30;2.40;;;;;;;12.21;100.00;100191.39;1780270;79;21118;-86
2021/05/21 01:55:36;;;;;;;3.45;2.02;;;;;;;12.20;100.00;100189.73;1771417;80;21076;-88
2021/05/21 01:58:03;;;;;;;4.47;2.08;;;;;;;12.18;100.00;100191.19;1754266;79;21071;-88
2021/05/21 02:00:30;;;;;;;2.65;2.20;;;;;;;12.17;100.00;100192.14;1775518;79;21138;-87
2021/05/21 02:02:57;;;;;;;6.67;2.12;;;;;;;12.15;100.00;100196.20;1750151;79;21063;-86
2021/05/21 02:05:25;;;;;;;4.87;1.70;;;;;;;12.16;100.00;100195.71;1762170;79;21005;-90
2021/05/21 02:07:52;;;;;;;2.05;1.80;;;;;;;12.14;100.00;100186.72;1775857;79;21059;-88
2021/05/21 02:10:19;;;;;;;2.35;1.55;;;;;;;12.14;100.00;100192.41;1767265;79;21108;-83
2021/05/21 02:12:46;;;;;;;3.67;1.90;;;;;;;12.12;100.00;100193.85;1786048;79;21747;-85
2021/05/21 02:15:14;;;;;;;2.47;2.27;;;;;;;12.11;100.00;100204.44;1778530;79;21466;-83
2021/05/21 02:17:41;;;;;;;1.70;1.60;;;;;;;12.13;100.00;100203.34;1759622;79;21146;-84
2021/05/21 02:20:12;;;;;;;2.60;1.50;;;;;;;12.13;100.00;100203.34;1755575;79;21106;-87
2021/05/21 02:22:40;;;;;;;1.95;1.67;;;;;;;12.11;100.00;100200.03;1782518;79;21039;-83
2021/05/21 02:25:08;;;;;;;1.60;1.50;;;;;;;12.09;100.00;100211.57;1787264;79;21016;-81
2021/05/21 02:27:35;;;;;;;2.12;1.65;;;;;;;12.07;100.00;100201.73;1781377;79;21036;-86
2021/05/21 02:30:05;;;;;;;2.45;1.42;;;;;;;12.05;100.00;100192.75;1785422;79;21697;-85
2021/05/21 02:32:32;;;;;;;2.33;1.70;;;;;;;12.04;100.00;100201.53;1784383;79;21060;-81
2021/05/21 02:34:59;;;;;;;2.05;1.80;;;;;;;12.05;100.00;100205.80;1769791;79;21048;-85
2021/05/21 02:37:27;;;;;;;2.05;1.50;;;;;;;12.05;100.00;100210.20;1779980;79;21130;-82
2021/05/21 02:39:53;;;;;;;3.05;1.70;;;;;;;12.03;100.00;100209.02;1783856;79;21662;-86
2021/05/21 02:42:20;;;;;;;1.82;1.50;;;;;;;12.02;100.00;100206.05;1767514;79;21008;-86
2021/05/21 02:44:48;;;;;;;2.85;1.50;;;;;;;12.03;100.00;100197.77;1777243;79;21082;-83
2021/05/21 02:47:15;;;;;;;2.22;1.50;;;;;;;12.03;100.00;100201.67;1780610;79;21067;-84
2021/05/21 02:49:42;;;;;;;2.62;1.67;;;;;;;12.02;100.00;100201.33;1769912;77;21009;-85
2021/05/21 02:52:09;;;;;;;2.22;1.70;;;;;;;12.00;100.00;100187.13;1812062;78;21091;-85
2021/05/21 02:54:37;;;;;;;3.67;2.12;;;;;;;12.03;100.00;100179.50;1811277;78;21104;-85
2021/05/21 02:57:04;;;;;;;3.15;1.70;;;;;;;12.01;100.00;100160.53;1809811;78;21118;-84
2021/05/21 02:59:32;;;;;;;2.45;1.42;;;;;;;11.99;100.00;100164.59;1813758;77;21585;-86
2021/05/21 03:02:00;;;;;;;6.15;1.50;;;;;;;11.98;100.00;100152.01;1808906;78;21569;-82
2021/05/21 03:04:27;;;;;;;2.20;1.35;;;;;;;12.02;100.00;100167.41;1808839;78;21072;-85
2021/05/21 03:06:54;;;;;;;3.90;1.30;;;;;;;12.02;100.00;100154.36;1759892;79;21163;-83
2021/05/21 03:09:21;;;;;;;1.87;1.62;;;;;;;12.02;100.00;100154.36;1785257;79;21047;-85
2021/05/21 03:11:48;;;;;;;3.52;1.30;;;;;;;12.05;100.00;100158.83;1797729;78;21053;-82
2021/05/21 03:14:16;;;;;;;1.60;1.40;;;;;;;12.08;100.00;100161.64;1775071;78;21107;-82
2021/05/21 03:16:43;;;;;;;3.95;1.37;;;;;;;12.12;100.00;100158.63;1716281;81;21114;-85
2021/05/21 03:19:12;;;;;;;2.83;1.77;;;;;;;12.18;100.00;100161.17;1751453;81;21011;-84
2021/05/21 03:21:39;;;;;;;1.60;1.50;;;;;;;12.22;100.00;100160.41;1723974;82;21776;-86
2021/05/21 03:24:07;;;;;;;2.45;1.30;;;;;;;12.24;100.00;100158.00;1763022;78;21146;-84
2021/05/21 03:26:34;;;;;;;3.45;1.32;;;;;;;12.26;100.00;100158.70;1801740;78;21589;-84
2021/05/21 03:29:01;;;;;;;2.05;1.40;;;;;;;12.24;100.00;100161.92;1804629;78;21178;-83
2021/05/21 03:31:28;;;;;;;4.12;1.67;;;;;;;12.22;100.00;100154.70;1779842;79;21663;-84
2021/05/21 03:33:55;;;;;;;3.50;1.20;;;;;;;12.19;100.00;100154.99;1772093;78;21207;-86
2021/05/21 03:36:23;;;;;;;4.87;1.57;;;;;;;12.15;100.00;100148.38;1811409;77;20968;-86
2021/05/21 03:38:50;;;;;;;1.65;1.35;;;;;;;12.13;100.00;100171.20;1779189;79;21565;-86
2021/05/21 03:41:18;;;;;;;2.20;1.22;;;;;;;12.14;100.00;100159.31;1770730;79;21594;-84
2021/05/21 03:43:46;;;;;;;5.72;1.50;;;;;;;12.18;100.00;100157.75;1795096;79;21553;-84
2021/05/21 03:46:13;;;;;;;1.47;1.37;;;;;;;12.23;100.00;100161.57;1784776;79;21628;-85
2021/05/21 03:48:39;;;;;;;2.35;1.50;;;;;;;12.26;100.00;100154.78;1781901;79;21119;-83
2021/05/21 03:51:06;;;;;;;2.33;1.60;;;;;;;12.33;100.00;100159.45;1779632;79;21058;-86
2021/05/21 03:53:34;;;;;;;1.95;1.47;;;;;;;12.37;100.00;100173.39;1800334;79;21072;-82
2021/05/21 03:56:01;;;;;;;2.08;1.40;;;;;;;12.40;100.00;100173.59;1794132;79;21154;-84
2021/05/21 03:58:28;;;;;;;1.40;0.98;;;;;;;12.42;100.00;100162.54;1755225;79;21647;-84
2021/05/21 04:00:55;;;;;;;3.30;1.70;;;;;;;12.41;100.00;100166.95;1789988;79;21040;-84
2021/05/21 04:03:22;;;;;;;3.22;1.12;;;;;;;12.43;100.00;100179.86;1803514;78;21122;-86
2021/05/21 04:05:49;;;;;;;1.45;1.20;;;;;;;12.43;100.00;100183.78;1786665;77;21075;-84
2021/05/21 04:08:17;;;;;;;2.67;1.52;;;;;;;12.45;100.00;100177.95;1786056;79;21031;-81
2021/05/21 04:10:44;;;;;;;3.00;1.40;;;;;;;12.48;100.00;100171.12;1792461;77;21081;-81
2021/05/21 04:13:13;;;;;;;2.67;1.20;;;;;;;12.51;100.00;100180.46;1796116;78;21083;-82
2021/05/21 04:15:40;;;;;;;2.55;1.40;;;;;;;12.54;100.00;100199.28;1785365;78;21108;-84
2021/05/21 04:18:10;;;;;;;1.30;1.07;;;;;;;12.57;100.00;100195.10;1804561;78;21163;-85
2021/05/21 04:20:38;;;;;;;3.55;1.10;;;;;;;12.59;100.00;100201.02;1818461;77;21134;-83
2021/05/21 04:23:07;;;;;;;2.67;0.95;;;;;;;12.59;100.00;100197.10;1812605;77;21048;-83
2021/05/21 04:25:34;;;;;;;3.12;1.20;;;;;;;12.61;100.00;100206.94;1771752;79;21110;-83
2021/05/21 04:28:02;;;;;;;2.87;1.10;;;;;;;12.61;100.00;100200.41;1781420;79;21549;-83
2021/05/21 04:30:29;;;;;;;2.95;1.40;;;;;;;12.63;100.00;100202.38;1753231;79;21046;-87
2021/05/21 04:32:57;;;;;;;1.35;1.10;;;;;;;12.65;100.00;100214.02;1777301;79;21223;-84
2021/05/21 04:35:24;;;;;;;1.30;1.20;;;;;;;12.69;100.00;100210.64;1796144;78;21102;-85
2021/05/21 04:37:51;;;;;;;0.90;0.90;;;;;;;12.72;100.00;100211.66;1771054;77;21045;-85
2021/05/21 04:40:18;;;;;;;1.55;1.00;;;;;;;12.75;100.00;100209.58;1729428;80;21048;-86
2021/05/21 04:42:47;;;;;;;2.62;1.27;;;;;;;12.78;100.00;100209.78;1781749;79;21553;-83
2021/05/21 04:45:15;;;;;;;3.83;1.10;;;;;;;12.80;100.00;100214.39;1776109;79;21075;-84
2021/05/21 04:47:43;;;;;;;2.75;1.20;;;;;;;12.80;100.00;100218.31;1775704;79;21111;-89
2021/05/21 04:50:11;;;;;;;4.05;1.00;;;;;;;12.80;100.00;100218.81;1799783;77;21071;-85
2021/05/21 04:52:38;;;;;;;1.12;1.00;;;;;;;12.78;100.00;100222.38;1789840;78;21017;-88
2021/05/21 04:55:06;;;;;;;1.87;1.20;;;;;;;12.77;100.00;100226.45;1789237;78;21172;-85
2021/05/21 04:57:33;;;;;;;2.58;1.35;;;;;;;12.77;100.00;100230.37;1789852;78;21153;-85
2021/05/21 05:00:00;;;;;;;1.40;1.00;;;;;;;12.78;100.00;100231.98;1808134;77;21068;-85
2021/05/21 05:02:27;;;;;;;2.55;1.10;;;;;;;12.80;100.00;100237.91;1814274;77;21075;-87
2021/05/21 05:04:54;;;;;;;1.98;1.10;;;;;;;12.84;100.00;100240.59;1798867;78;21605;-84
2021/05/21 05:07:21;;;;;;;1.27;1.07;;;;;;;12.89;100.00;100250.14;1791438;79;21076;-85
2021/05/21 05:09:51;;;;;;;3.27;1.07;;;;;;;12.94;100.00;100240.58;1785745;79;21059;-88
2021/05/21 05:12:18;;;;;;;1.35;1.00;;;;;;;12.96;100.00;100237.81;1761163;79;21610;-84
2021/05/21 05:14:45;;;;;;;4.62;1.05;;;;;;;12.97;100.00;100236.39;1758228;80;21049;-83
2021/05/21 05:17:12;;;;;;;3.10;1.00;;;;;;;12.97;100.00;100234.23;1783909;79;21614;-84
2021/05/21 05:19:39;;;;;;;3.27;0.90;;;;;;;12.95;100.00;100234.39;1791984;79;21049;-87
2021/05/21 05:22:07;;;;;;;1.55;0.70;;;;;;;12.94;100.00;100244.00;1798075;78;21683;-86
2021/05/21 05:24:36;;;;;;;1.37;0.70;;;;;;;12.92;100.00;100248.56;1754877;79;21873;-85
2021/05/21 05:27:04;;;;;;;3.50;1.00;;;;;;;12.90;100.00;100246.57;1776303;79;20987;-86
2021/05/21 05:29:33;;;;;;;4.83;1.00;;;;;;;12.88;100.00;100245.88;1782557;78;21065;-86
2021/05/21 05:32:04;;;;;;;1.52;0.80;;;;;;;12.87;100.00;100248.14;1801964;78;21008;-85
2021/05/21 05:34:31;;;;;;;1.67;0.90;;;;;;;12.88;100.00;100245.06;1780173;79;21032;-83
2021/05/21 05:36:58;;;;;;;1.07;0.80;;;;;;;12.88;100.00;100235.92;1764997;79;21060;-82
2021/05/21 05:39:26;;;;;;;2.90;0.80;;;;;;;12.89;100.00;100239.69;1777252;79;21059;-86
2021/05/21 05:41:53;;;;;;;2.42;0.90;;;;;;;12.91;100.00;100248.22;1759460;79;21680;-85
2021/05/21 05:44:20;;;;;;;9.38;1.12;;;;;;;12.93;100.00;100238.46;1791080;79;21112;-86
2021/05/21 05:46:49;;;;;;;1.32;0.70;;;;;;;12.94;100.00;100229.63;1778179;79;21159;-86
2021/05/21 05:49:16;;;;;;;1.90;0.80;;;;;;;12.98;100.00;100250.27;1777808;79;21114;-84
2021/05/21 05:51:44;;;;;;;1.07;0.98;;;;;;;13.01;100.00;100240.85;1806714;78;21125;-82
2021/05/21 05:54:11;;;;;;;0.70;0.70;;;;;;;13.06;100.00;100241.24;1789360;79;21044;-87
2021/05/21 05:56:38;;;;;;;1.98;0.90;;;;;;;13.09;100.00;100244.40;1766818;79;21549;-85
2021/05/21 05:59:05;;;;;;;0.70;0.68;;;;;;;13.14;100.00;100241.86;1765773;78;21062;-85
2021/05/21 06:01:32;;;;;;;1.77;0.70;;;;;;;13.17;100.00;100239.79;1721177;82;21040;-86
2021/05/21 06:03:59;;;;;;;0.90;0.70;;;;;;;13.19;100.00;100233.10;1748676;81;21059;-87
2021/05/21 06:06:26;;;;;;;1.12;0.70;;;;;;;13.23;100.00;100243.60;1727269;81;21088;-84
2021/05/21 06:08:53;;;;;;;1.65;0.70;;;;;;;13.21;100.00;100241.14;1793136;78;23138;-88
2021/05/21 06:11:20;;;;;;;1.32;0.72;;;;;;;13.20;100.00;100241.30;1787641;77;21072;-86
2021/05/21 06:13:48;;;;;;;3.08;0.85;;;;;;;13.19;100.00;100241.75;1786555;78;21115;-87
2021/05/21 06:16:16;;;;;;;0.80;0.80;;;;;;;13.20;100.00;100243.41;1811236;78;21039;-89
2021/05/21 06:18:43;;;;;;;2.90;0.72;;;;;;;13.23;100.00;100246.22;1811913;78;21067;-87
2021/05/21 06:21:10;;;;;;;2.58;0.70;;;;;;;13.27;100.00;100250.22;1777887;77;21111;-86
2021/05/21 06:23:38;;;;;;;1.15;0.70;;;;;;;13.31;100.00;100246.33;1786142;77;21616;-82
2021/05/21 06:28:45;;;;;;;0.82;0.68;;;;;;;13.43;100.00;100256.17;1725430;82;21117;-83
2021/05/21 06:31:13;;;;;;;1.90;0.60;;;;;;;13.50;100.00;100256.43;1718861;82;21114;-87
2021/05/21 06:33:41;;;;;;;1.02;0.65;;;;;;;13.54;100.00;100254.70;1774116;80;21052;-84
2021/05/21 06:36:08;;;;;;;0.75;0.70;;;;;;;13.56;100.00;100256.69;1785199;79;21084;-84
2021/05/21 06:38:35;;;;;;;0.70;0.70;;;;;;;13.60;100.00;100256.39;1700612;82;21685;-85
2021/05/21 06:41:03;;;;;;;1.05;0.62;;;;;;;13.65;100.00;100263.34;1709704;82;21726;-85
2021/05/21 06:43:32;;;;;;;0.50;0.50;;;;;;;13.70;100.00;100264.53;1712008;82;21583;-85
2021/05/21 06:46:01;;;;;;;3.85;0.70;;;;;;;13.76;100.00;100264.45;1720728;82;21014;-85
2021/05/21 06:48:35;;;;;;;0.65;0.60;;;;;;;13.81;100.00;100262.23;1706150;82;21002;-84
2021/05/21 06:51:07;;;;;;;1.25;0.68;;;;;;;13.87;100.00;100268.66;1693657;82;21074;-83
2021/05/21 06:53:34;;;;;;;1.00;0.70;;;;;;;13.93;100.00;100271.19;1700227;82;21082;-87
2021/05/21 06:56:03;;;;;;;1.20;0.80;;;;;;;13.93;100.00;100272.03;1719333;81;21491;-82
2021/05/21 06:58:31;;;;;;;0.68;0.68;;;;;;;13.92;100.00;100277.39;1716903;81;21041;-85
2021/05/21 07:00:58;;;;;;;1.65;0.80;;;;;;;13.91;100.00;100275.27;1716495;82;21086;-85
2021/05/21 07:03:28;;;;;;;0.70;0.70;;;;;;;13.91;100.00;100278.34;1705883;82;21818;-85
2021/05/21 07:05:56;;;;;;;5.55;1.00;;;;;;;13.93;100.00;100286.89;1698924;82;21715;-85
2021/05/21 07:08:25;;;;;;;1.55;0.70;;;;;;;13.94;100.00;100283.30;1693085;82;21054;-86
2021/05/21 07:10:53;;;;;;;1.65;1.00;;;;;;;13.97;100.00;100286.95;1717718;81;21111;-84
2021/05/21 07:13:21;;;;;;;4.30;1.10;;;;;;;14.01;100.00;100296.15;1699547;82;21082;-84
2021/05/21 07:15:49;;;;;;;2.58;1.00;;;;;;;14.04;100.00;100291.95;1702184;82;21239;-84
2021/05/21 07:18:17;;;;;;;5.22;0.82;;;;;;;14.05;100.00;100288.36;1693274;82;21042;-83
2021/05/21 07:20:46;;;;;;;1.70;1.00;;;;;;;14.03;100.00;100292.41;1701387;82;21575;-83
2021/05/21 07:23:14;;;;;;;5.20;1.40;;;;;;;14.01;100.00;100300.08;1704354;82;21113;-83
2021/05/21 07:25:43;;;;;;;1.82;1.10;;;;;;;14.02;100.00;100304.34;1722945;82;21177;-84
2021/05/21 07:28:10;;;;;;;3.52;0.62;;;;;;;14.01;100.00;100304.00;1718640;82;21137;-86
2021/05/21 07:30:39;;;;;;;3.08;0.70;;;;;;;14.03;100.00;100306.00;1702718;82;21042;-90
2021/05/21 07:33:06;;;;;;;2.10;0.62;;;;;;;14.07;100.00;100313.88;1702712;83;21077;-86
2021/05/21 07:35:33;;;;;;;0.65;0.65;;;;;;;14.15;100.00;100305.31;1707468;81;21069;-85
2021/05/21 07:38:00;;;;;;;0.95;0.70;;;;;;;14.22;100.00;100314.23;1697504;81;21022;-84
2021/05/21 07:40:27;;;;;;;1.05;0.72;;;;;;;14.23;100.00;100316.35;1692913;81;21106;-90
2021/05/21 07:42:54;;;;;;;1.90;0.75;;;;;;;14.22;100.00;100308.99;1710990;82;21105;-86
2021/05/21 07:45:21;;;;;;;1.85;1.10;;;;;;;14.26;100.00;100306.91;1704905;82;21568;-87
2021/05/21 07:47:48;;;;;;;2.15;0.60;;;;;;;14.31;100.00;100313.83;1701081;82;21027;-85
2021/05/21 07:50:16;;;;;;;2.08;0.70;;;;;;;14.38;100.00;100316.69;1728659;82;21094;-86
2021/05/21 07:52:43;;;;;;;1.90;0.50;;;;;;;14.44;100.00;100309.55;1719952;81;21838;-87
2021/05/21 07:55:11;;;;;;;0.57;0.57;;;;;;;14.50;100.00;100311.09;1719673;82;21134;-88
2021/05/21 07:57:39;;;;;;;1.57;0.98;;;;;;;14.56;100.00;100319.32;1699520;82;21086;-87
2021/05/21 08:00:09;;;;;;;0.95;0.50;;;;;;;14.57;100.00;100324.44;1705595;81;21061;-85
2021/05/21 08:02:37;;;;;;;2.70;0.62;;;;;;;14.55;100.00;100325.53;1741754;80;21093;-87
2021/05/21 08:05:06;;;;;;;0.72;0.72;;;;;;;14.55;100.00;100328.98;1703968;81;21186;-85
2021/05/21 08:07:36;;;;;;;2.45;0.70;;;;;;;14.54;100.00;100327.84;1695589;80;21071;-83
2021/05/21 08:10:06;;;;;;;3.75;1.12;;;;;;;14.51;100.00;100335.02;1715606;81;21943;-83
2021/05/21 08:12:37;;;;;;;1.30;1.00;;;;;;;14.49;100.00;100330.41;1760908;79;20956;-88
2021/05/21 08:15:05;;;;;;;1.55;0.70;;;;;;;14.49;100.00;100337.45;1696977;82;21551;-83
2021/05/21 08:17:34;;;;;;;1.57;0.60;;;;;;;14.45;100.00;100341.31;1734093;80;21065;-84
2021/05/21 08:20:04;;;;;;;2.90;0.70;;;;;;;14.38;100.00;100342.38;1732277;82;21210;-88
2021/05/21 08:22:33;;;;;;;0.98;0.70;;;;;;;14.36;100.00;100345.66;1718393;81;21101;-84
2021/05/21 08:25:00;;;;;;;0.70;0.70;;;;;;;14.35;100.00;100347.94;1730460;81;21085;-84
2021/05/21 08:27:27;;;;;;;1.98;0.70;;;;;;;14.34;100.00;100344.97;1803721;78;21057;-85
2021/05/21 08:29:55;;;;;;;1.05;0.82;;;;;;;14.34;100.00;100343.66;1725046;81;21072;-84
2021/05/21 08:32:23;;;;;;;2.65;0.72;;;;;;;14.34;100.00;100344.47;1772387;79;20995;-84
2021/05/21 08:34:50;;;;;;;0.60;0.60;;;;;;;14.37;100.00;100352.55;1781458;79;21585;-83
2021/05/21 08:37:17;;;;;;;4.78;0.85;;;;;;;14.38;100.00;100346.31;1746178;80;21622;-84
2021/05/21 08:39:45;;;;;;;1.25;0.70;;;;;;;14.38;100.00;100358.09;1780794;78;21103;-88
2021/05/21 08:42:15;;;;;;;1.87;0.70;;;;;;;14.41;100.00;100351.27;1752958;79;21015;-84
2021/05/21 08:44:46;;;;;;;1.05;0.50;;;;;;;14.43;100.00;100354.58;1774591;78;21024;-83
2021/05/21 08:47:17;;;;;;;0.80;0.70;;;;;;;14.45;100.00;100344.78;1760788;79;21028;-85
2021/05/21 08:49:46;;;;;;;1.37;0.72;;;;;;;14.48;100.00;100355.45;1804822;78;21100;-85
2021/05/21 08:52:16;;;;;;;5.60;0.80;;;;;;;14.51;100.00;100355.13;1803087;78;21044;-86
2021/05/21 08:54:45;;;;;;;3.52;0.75;;;;;;;14.53;100.00;100360.25;1803140;78;21658;-85
2021/05/21 08:57:19;;;;;;;3.12;0.68;;;;;;;14.56;100.00;100366.48;1805434;78;21011;-86
2021/05/21 08:59:50;;;;;;;0.55;0.55;;;;;;;14.60;100.00;100365.23;1779011;79;21040;-83
2021/05/21 10:01:20;;;;;;;4.33;0.80;;;;;;;16.44;100.00;100361.91;1729817;81;21059;-84
2021/05/21 10:03:52;;;;;;;1.55;1.32;;;;;;;16.48;100.00;100359.28;1693551;82;21114;-85
2021/05/21 10:06:27;;;;;;;1.67;0.93;;;;;;;16.56;100.00;100351.42;1645499;84;21147;-83
2021/05/21 10:09:03;;;;;;;1.22;1.00;;;;;;;16.75;100.00;100348.98;1679669;84;21003;-88
2021/05/21 10:11:32;;;;;;;1.30;0.80;;;;;;;17.05;100.00;100342.81;1638376;85;21004;-82
2021/05/21 10:13:59;;;;;;;2.52;1.02;;;;;;;17.22;100.00;100351.51;1655744;84;21106;-86
2021/05/21 10:16:28;;;;;;;0.85;0.75;;;;;;;17.32;100.00;100353.48;1686550;82;21196;-87
2021/05/21 10:18:56;;;;;;;1.12;0.80;;;;;;;17.34;100.00;100369.09;1649471;84;21571;-84
2021/05/21 10:21:23;;;;;;;3.37;0.98;;;;;;;17.34;100.00;100356.78;1647175;84;21637;-83
2021/05/21 10:24:06;;;;;;;0.70;0.70;;;;;;;17.39;100.00;100352.81;1656987;82;21036;-82
2021/05/21 10:26:40;;;;;;;3.45;0.90;;;;;;;17.49;100.00;100352.95;1688890;83;21171;-88
2021/05/21 10:29:11;;;;;;;2.45;0.90;;;;;;;17.51;100.00;100358.05;1659109;84;21116;-84
2021/05/21 10:31:39;;;;;;;3.30;0.90;;;;;;;17.52;100.00;100358.38;1652358;84;21096;-89
2021/05/21 10:34:22;;;;;;;1.40;0.82;;;;;;;17.48;100.00;100353.94;1642207;84;21118;-83
2021/05/21 10:37:24;;;;;;;2.65;0.98;;;;;;;17.39;100.00;100352.30;1645023;84;21095;-87
2021/05/21 10:40:14;;;;;;;1.42;1.10;;;;;;;17.37;100.00;100348.20;1687186;83;21015;-91
2021/05/21 10:43:00;;;;;;;2.33;1.20;;;;;;;17.39;100.00;100350.19;1651322;84;21117;-89
2021/05/21 10:45:28;;;;;;;1.40;0.90;;;;;;;17.42;100.00;100350.67;1642291;84;21119;-88
2021/05/21 10:48:04;;;;;;;2.65;1.00;;;;;;;17.51;100.00;100346.20;1673992;83;21103;-86
2021/05/21 10:50:37;;;;;;;2.77;0.93;;;;;;;17.66;100.00;100350.30;1623218;84;21681;-85
2021/05/21 10:53:06;;;;;;;2.40;1.00;;;;;;;17.72;100.00;100357.52;1640114;85;21051;-85
2021/05/21 10:55:54;;;;;;;0.82;0.82;;;;;;;17.74;100.00;100352.09;1642910;84;21131;-86
2021/05/21 10:58:30;;;;;;;0.78;0.70;;;;;;;17.70;100.00;100355.56;1643901;85;21157;-88
2021/05/21 11:01:17;;;;;;;0.72;0.72;;;;;;;17.70;100.00;100355.56;1671006;84;21115;-85
2021/05/21 11:04:02;;;;;;;1.95;0.85;;;;;;;17.68;100.00;100347.48;1654007;84;21083;-87
2021/05/21 11:06:32;;;;;;;0.50;0.50;;;;;;;17.63;100.00;100344.88;1666908;82;21529;-87
2021/05/21 11:09:12;;;;;;;1.05;0.72;;;;;;;17.52;100.00;100344.41;1699187;82;21075;-86
2021/05/21 11:12:03;;;;;;;0.70;0.70;;;;;;;17.45;100.00;100345.56;1665828;83;21135;-89
2021/05/21 11:14:34;;;;;;;2.45;0.82;;;;;;;17.43;100.00;100344.42;1671060;83;21116;-86
2021/05/21 11:17:13;;;;;;;;;;;;;;;17.35;100.00;100349.70;1698351;82;21637;-85
2021/05/21 11:19:57;;;;;;;2.02;0.55;;;;;;;17.25;100.00;100347.25;1643824;85;20228;-86
2021/05/21 11:22:36;;;;;;;1.65;0.68;;;;;;;17.23;100.00;100350.53;1691292;82;21185;-88
2021/05/21 11:25:28;;;;;;;1.77;0.80;;;;;;;17.21;100.00;100359.07;1689749;83;21628;-87
2021/05/21 11:27:55;;;;;;;0.93;0.60;;;;;;;17.18;100.00;100357.59;1640684;84;21069;-85
2021/05/21 11:30:22;;;;;;;0.78;0.68;;;;;;;17.20;100.00;100358.73;1638314;86;21639;-87
2021/05/21 11:32:50;;;;;;;1.32;0.72;;;;;;;17.21;100.00;100356.44;1647665;84;21128;-88
2021/05/21 11:35:17;;;;;;;0.70;0.70;;;;;;;17.27;100.00;100356.28;1654714;85;21044;-88
2021/05/21 11:37:44;;;;;;;0.80;0.80;;;;;;;17.32;100.00;100352.17;1671972;83;21143;-88
2021/05/21 11:40:11;;;;;;;2.58;0.70;;;;;;;17.38;100.00;100365.64;1658934;83;21160;-86
2021/05/21 11:42:39;;;;;;;3.80;1.12;;;;;;;17.39;100.00;100355.45;1632289;85;21146;-88
2021/05/21 11:45:08;;;;;;;0.80;0.80;;;;;;;17.47;100.00;100358.06;1669672;83;21592;-90
2021/05/21 11:47:37;;;;;;;0.98;0.70;;;;;;;17.52;100.00;100358.38;1628061;86;21211;-88
2021/05/21 11:50:08;;;;;;;1.30;0.70;;;;;;;17.54;100.00;100364.30;1651530;84;21665;-87
2021/05/21 11:52:36;;;;;;;0.93;0.88;;;;;;;17.63;100.00;100368.57;1646412;85;21113;-86
2021/05/21 11:55:05;;;;;;;0.65;0.62;;;;;;;17.82;100.00;100361.30;1654501;85;21105;-88
2021/05/21 11:57:33;;;;;;;1.80;0.80;;;;;;;18.05;100.00;100361.91;1650227;84;21072;-88
2021/05/21 12:00:00;;;;;;;4.58;0.85;;;;;;;18.39;100.00;100358.10;1641832;85;21084;-86
2021/05/21 12:02:27;;;;;;;2.27;0.90;;;;;;;18.72;100.00;100344.24;1672800;83;21149;-89
2021/05/21 12:04:55;;;;;;;0.93;0.85;;;;;;;19.01;100.00;100341.92;1668937;83;21152;-89
2021/05/21 12:07:26;;;;;;;2.60;0.80;;;;;;;19.28;100.00;100344.97;1639287;83;21534;-86
2021/05/21 12:10:04;;;;;;;0.80;0.80;;;;;;;19.46;100.00;100338.05;1665933;83;21161;-88
2021/05/21 12:12:36;;;;;;;0.90;0.78;;;;;;;19.58;100.00;100343.19;1668937;83;21103;-86
2021/05/21 12:15:13;;;;;;;2.83;0.68;;;;;;;19.68;100.00;100340.27;1675422;83;21155;-89
2021/05/21 12:17:47;;;;;;;1.52;0.82;;;;;;;19.74;99.74;100339.56;1700245;82;21140;-86
2021/05/21 12:20:15;;;;;;;3.70;0.90;;;;;;;19.79;98.57;100342.98;1689150;83;21114;-85
2021/05/21 12:23:06;;;;;;;2.45;1.02;;;;;;;19.78;90.36;100342.66;1654185;84;21136;-87
2021/05/21 12:25:37;;;;;;;0.72;0.60;;;;;;;19.70;93.87;100338.28;1636727;83;21570;-86
2021/05/21 12:28:05;;;;;;;1.30;0.90;;;;;;;19.68;100.00;100341.11;1671368;82;21606;-86